createdAt,value
2023-05-19T00:04:47.620Z,10.50
2023-05-19T00:09:49.267Z,10.40
2023-05-19T00:14:50.821Z,10.30
2023-05-19T00:19:52.650Z,10.30
2023-05-19T00:24:54.185Z,10.10
2023-05-19T00:29:55.682Z,10.10
2023-05-19T00:34:57.347Z,10.00
2023-05-19T00:39:59.037Z,9.90
2023-05-19T00:45:00.988Z,9.80
2023-05-19T00:50:05.408Z,9.70
2023-05-19T00:55:07.109Z,9.60
2023-05-19T01:00:08.808Z,9.60
2023-05-19T01:05:10.844Z,9.50
2023-05-19T01:10:12.423Z,9.50
2023-05-19T01:15:15.218Z,9.50
2023-05-19T01:20:16.976Z,9.50
2023-05-19T01:25:19.154Z,9.60
2023-05-19T01:30:21.253Z,9.60
2023-05-19T01:35:22.937Z,9.60
2023-05-19T01:40:24.594Z,9.60
2023-05-19T01:45:26.319Z,9.60
2023-05-19T01:50:28.570Z,9.70
2023-05-19T01:55:32.976Z,9.70
2023-05-19T02:00:34.747Z,9.70
2023-05-19T02:05:36.666Z,9.70
2023-05-19T02:10:38.905Z,9.70
2023-05-19T02:15:41.040Z,9.60
2023-05-19T02:20:42.869Z,9.60
2023-05-19T02:25:44.540Z,9.60
2023-05-19T02:30:46.219Z,9.50
2023-05-19T02:35:47.701Z,9.60
2023-05-19T02:40:49.261Z,9.50
2023-05-19T02:45:51.424Z,9.60
2023-05-19T02:50:53.227Z,9.60
2023-05-19T02:55:54.883Z,9.60
2023-05-19T03:00:56.541Z,9.60
2023-05-19T03:05:58.232Z,9.60
2023-05-19T03:10:59.956Z,9.60
2023-05-19T03:16:01.616Z,9.60
2023-05-19T03:21:03.956Z,9.60
2023-05-19T03:26:05.507Z,9.60
2023-05-19T03:31:07.190Z,9.60
2023-05-19T03:36:09.208Z,9.60
2023-05-19T03:41:10.854Z,9.60
2023-05-19T03:46:12.539Z,9.70
2023-05-19T03:51:15.439Z,9.70
2023-05-19T03:56:17.507Z,9.80
2023-05-19T04:01:19.071Z,9.80
2023-05-19T04:06:20.640Z,10.00
2023-05-19T04:11:22.403Z,10.10
2023-05-19T04:16:24.173Z,10.20
2023-05-19T04:21:26.024Z,10.30
2023-05-19T04:26:27.727Z,10.30
2023-05-19T04:31:29.468Z,10.50
2023-05-19T04:36:30.977Z,10.70
2023-05-19T04:41:32.760Z,10.80
2023-05-19T04:46:34.266Z,11.00
2023-05-19T04:51:36.173Z,11.10
2023-05-19T04:56:37.762Z,11.20
2023-05-19T05:01:39.376Z,11.20
2023-05-19T05:06:41.404Z,11.30
2023-05-19T05:11:46.779Z,11.40
2023-05-19T05:16:49.501Z,11.50
2023-05-19T05:21:52.235Z,11.60
2023-05-19T05:26:53.922Z,11.90
2023-05-19T05:31:55.395Z,12.00
2023-05-19T05:36:56.952Z,11.90
2023-05-19T05:41:58.652Z,12.00
2023-05-19T05:47:00.305Z,12.20
2023-05-19T05:52:06.341Z,12.10
2023-05-19T05:57:08.608Z,12.10
2023-05-19T06:02:10.339Z,12.00
2023-05-19T06:07:12.226Z,12.00
2023-05-19T06:12:13.897Z,12.20
2023-05-19T06:17:15.447Z,12.30
2023-05-19T06:22:17.250Z,12.30
2023-05-19T06:27:18.881Z,12.30
2023-05-19T06:32:20.627Z,12.30
2023-05-19T06:37:22.225Z,12.40
2023-05-19T06:42:23.723Z,12.60
2023-05-19T06:47:25.358Z,12.60
2023-05-19T06:52:26.979Z,12.70
2023-05-19T06:57:28.625Z,12.80
2023-05-19T07:02:30.422Z,12.90
2023-05-19T07:07:32.188Z,12.80
2023-05-19T07:12:34.601Z,12.80
2023-05-19T07:17:36.585Z,12.80
2023-05-19T07:22:38.181Z,12.80
2023-05-19T07:27:41.977Z,12.80
2023-05-19T07:32:55.326Z,12.80
2023-05-19T07:38:04.838Z,12.80
2023-05-19T07:43:06.440Z,12.70
2023-05-19T07:48:08.201Z,12.70
2023-05-19T07:53:10.052Z,12.70
2023-05-19T07:58:11.588Z,12.70
2023-05-19T08:03:13.712Z,12.70
2023-05-19T08:08:15.622Z,12.80
2023-05-19T08:13:17.324Z,12.90
2023-05-19T08:18:18.912Z,13.00
2023-05-19T08:23:20.678Z,13.20
2023-05-19T08:28:22.372Z,13.30
2023-05-19T08:33:24.019Z,13.30
2023-05-19T08:38:25.589Z,13.20
2023-05-19T08:43:27.085Z,13.60
2023-05-19T08:48:28.578Z,13.90
2023-05-19T08:54:06.000Z,14.30
2023-05-19T08:59:26.166Z,14.50
2023-05-19T09:04:46.443Z,14.50
2023-05-19T09:09:48.405Z,14.60
2023-05-19T09:14:52.986Z,14.60
2023-05-19T09:19:57.708Z,14.60
2023-05-19T09:25:02.477Z,14.50
2023-05-19T09:30:04.138Z,14.70
2023-05-19T09:35:05.814Z,14.80
2023-05-19T09:40:07.464Z,15.00
2023-05-19T09:45:09.129Z,15.20
2023-05-19T09:50:10.812Z,15.40
2023-05-19T09:55:12.473Z,15.70
2023-05-19T10:00:14.167Z,15.80
2023-05-19T10:05:20.369Z,16.30
2023-05-19T10:10:22.411Z,16.70
2023-05-19T10:15:24.051Z,17.30
2023-05-19T10:20:29.476Z,17.70
2023-05-19T10:25:40.478Z,17.90
2023-05-19T10:30:42.320Z,18.30
2023-05-19T10:35:45.301Z,18.10
2023-05-19T10:40:48.732Z,17.70
2023-05-19T10:45:50.421Z,17.60
2023-05-19T10:50:52.100Z,17.40
2023-05-19T10:55:53.594Z,17.30
2023-05-19T11:00:55.399Z,17.40
2023-05-19T11:05:57.088Z,17.40
2023-05-19T11:10:58.809Z,17.20
2023-05-19T11:16:00.742Z,16.90
2023-05-19T11:21:02.700Z,16.50
2023-05-19T11:26:04.285Z,16.00
2023-05-19T11:31:06.036Z,15.60
2023-05-19T11:36:07.740Z,15.60
2023-05-19T11:41:09.415Z,15.70
2023-05-19T11:46:10.933Z,15.30
2023-05-19T11:51:12.747Z,15.00
2023-05-19T11:56:14.428Z,15.00
2023-05-19T12:01:16.097Z,15.30
2023-05-19T12:06:17.818Z,15.40
2023-05-19T12:11:20.202Z,15.50
2023-05-19T12:16:22.059Z,15.20
2023-05-19T12:21:23.572Z,15.40
2023-05-19T12:26:37.624Z,15.60
2023-05-19T12:31:39.326Z,15.70
2023-05-19T12:36:40.925Z,15.80
2023-05-19T12:41:42.395Z,15.80
2023-05-19T12:46:43.876Z,15.80
2023-05-19T12:51:45.416Z,15.60
2023-05-19T12:56:47.061Z,15.30
2023-05-19T13:01:48.637Z,15.20
2023-05-19T13:06:50.189Z,15.40
2023-05-19T13:11:51.676Z,15.50
2023-05-19T13:16:53.205Z,15.50
2023-05-19T13:21:54.833Z,15.30
2023-05-19T13:26:56.336Z,15.20
2023-05-19T13:32:01.225Z,15.10
2023-05-19T13:37:03.250Z,15.10
2023-05-19T13:42:04.823Z,15.20
2023-05-19T13:47:06.428Z,15.30
2023-05-19T13:52:08.174Z,15.40
2023-05-19T13:57:09.711Z,15.10
2023-05-19T14:02:11.350Z,14.90
2023-05-19T14:07:12.905Z,15.00
2023-05-19T14:12:14.410Z,15.10
2023-05-19T14:17:15.911Z,15.20
2023-05-19T14:22:17.426Z,15.20
2023-05-19T14:27:18.921Z,15.30
2023-05-19T14:32:20.580Z,15.20
2023-05-19T14:37:22.193Z,15.20
2023-05-19T14:42:23.685Z,15.40
2023-05-19T14:47:26.360Z,15.40
2023-05-19T14:52:28.820Z,15.50
2023-05-19T14:57:30.306Z,15.50
2023-05-19T15:02:31.828Z,15.60
2023-05-19T15:07:33.329Z,15.70
2023-05-19T15:12:34.880Z,15.70
2023-05-19T15:17:36.505Z,15.80
2023-05-19T15:22:37.999Z,15.60
2023-05-19T15:27:39.677Z,15.50
2023-05-19T15:32:41.356Z,15.50
2023-05-19T15:37:42.988Z,15.90
2023-05-19T15:42:44.648Z,16.10
2023-05-19T15:47:46.159Z,16.30
2023-05-19T15:52:47.725Z,16.40
2023-05-19T15:57:49.368Z,16.40
2023-05-19T16:02:51.212Z,16.40
2023-05-19T16:07:53.017Z,16.30
2023-05-19T16:12:54.673Z,16.10
2023-05-19T16:17:56.376Z,15.80
2023-05-19T16:22:57.901Z,15.80
2023-05-19T16:27:59.702Z,15.90
2023-05-19T16:33:01.436Z,16.00
2023-05-19T16:38:02.944Z,15.80
2023-05-19T16:43:04.721Z,15.60
2023-05-19T16:48:06.437Z,15.50
2023-05-19T16:53:08.075Z,15.50
2023-05-19T16:58:09.743Z,15.40
2023-05-19T17:03:11.663Z,15.20
2023-05-19T17:08:13.667Z,15.20
2023-05-19T17:13:15.362Z,15.00
2023-05-19T17:18:17.041Z,15.00
2023-05-19T17:23:18.693Z,15.00
2023-05-19T17:28:20.395Z,14.90
2023-05-19T17:33:21.952Z,14.90
2023-05-19T17:38:24.024Z,14.80
2023-05-19T17:43:25.681Z,14.70
2023-05-19T17:48:27.172Z,14.70
2023-05-19T17:53:28.876Z,14.80
2023-05-19T17:58:30.420Z,14.80
2023-05-19T18:03:32.203Z,14.80
2023-05-19T18:08:33.805Z,14.70
2023-05-19T18:13:35.571Z,14.60
2023-05-19T18:18:37.549Z,14.50
2023-05-19T18:23:39.379Z,14.30
2023-05-19T18:28:41.055Z,14.30
2023-05-19T18:33:43.926Z,14.20
2023-05-19T18:38:45.616Z,14.20
2023-05-19T18:43:47.285Z,14.10
2023-05-19T18:48:48.794Z,14.10
2023-05-19T18:53:50.336Z,14.10
2023-05-19T18:58:52.074Z,14.10
2023-05-19T19:03:53.626Z,14.20
2023-05-19T19:08:55.382Z,14.10
2023-05-19T19:13:57.032Z,14.00
2023-05-19T19:18:58.703Z,14.10
2023-05-19T19:24:00.385Z,14.00
2023-05-19T19:29:02.010Z,14.00
2023-05-19T19:34:03.518Z,13.90
2023-05-19T19:39:05.438Z,13.80
2023-05-19T19:44:06.958Z,13.90
2023-05-19T19:49:08.719Z,13.90
2023-05-19T19:54:10.263Z,13.80
2023-05-19T19:59:11.766Z,13.70
2023-05-19T20:04:13.450Z,13.80
2023-05-19T20:09:15.057Z,13.70
2023-05-19T20:14:16.753Z,13.70
2023-05-19T20:19:18.434Z,13.60
2023-05-19T20:24:20.085Z,13.50
2023-05-19T20:29:21.727Z,13.50
2023-05-19T20:34:23.250Z,13.50
2023-05-19T20:39:24.778Z,13.40
2023-05-19T20:44:26.486Z,13.40
2023-05-19T20:49:28.152Z,13.40
2023-05-19T20:54:29.817Z,13.40
2023-05-19T20:59:31.468Z,13.40
2023-05-19T21:04:33.121Z,13.30
2023-05-19T21:09:34.853Z,13.30
2023-05-19T21:14:36.486Z,13.20
2023-05-19T21:19:38.172Z,13.20
2023-05-19T21:24:39.874Z,13.20
2023-05-19T21:29:41.369Z,13.20
2023-05-19T21:34:43.167Z,13.20
2023-05-19T21:39:44.910Z,13.10
2023-05-19T21:44:46.692Z,13.10
2023-05-19T21:49:48.539Z,13.10
2023-05-19T21:54:50.158Z,13.10
2023-05-19T21:59:51.848Z,13.00
2023-05-19T22:04:53.496Z,13.00
2023-05-19T22:09:55.194Z,13.10
2023-05-19T22:14:56.866Z,13.10
2023-05-19T22:19:58.522Z,13.10
2023-05-19T22:25:00.206Z,13.00
2023-05-19T22:30:01.905Z,13.00
2023-05-19T22:35:03.537Z,13.00
2023-05-19T22:40:05.509Z,13.00
2023-05-19T22:45:07.196Z,13.00
2023-05-19T22:50:08.858Z,12.90
2023-05-19T22:55:10.359Z,12.90
2023-05-19T23:00:11.899Z,12.90
2023-05-19T23:05:13.415Z,12.80
2023-05-19T23:10:14.919Z,12.80
2023-05-19T23:15:16.574Z,12.90
2023-05-19T23:20:18.050Z,12.90
2023-05-19T23:25:19.636Z,12.90
2023-05-19T23:30:21.309Z,12.90
2023-05-19T23:35:22.770Z,12.80
2023-05-19T23:40:24.351Z,12.80
2023-05-19T23:45:25.991Z,12.80
2023-05-19T23:50:27.668Z,12.80
2023-05-19T23:55:29.337Z,12.80
